createdAt,value
2022-08-11T00:01:18.564Z,100388.63
2022-08-11T00:03:49.059Z,100378.88
2022-08-11T00:06:26.080Z,100387.72
2022-08-11T00:08:54.521Z,100382.38
2022-08-11T00:11:22.443Z,100389.41
2022-08-11T00:13:54.917Z,100379.72
2022-08-11T00:16:24.025Z,100383.28
2022-08-11T00:18:53.272Z,100378.94
2022-08-11T00:22:03.968Z,100374.34
2022-08-11T00:24:09.868Z,100377.97
2022-08-11T00:26:37.576Z,100376.56
2022-08-11T00:29:09.868Z,100376.94
2022-08-11T00:31:38.677Z,100373.44
2022-08-11T00:34:11.301Z,100363.94
2022-08-11T00:36:53.329Z,100368.34
2022-08-11T00:39:28.452Z,100367.50
2022-08-11T00:42:04.007Z,100366.63
2022-08-11T00:44:49.822Z,100373.28
2022-08-11T00:47:26.193Z,100367.31
2022-08-11T00:50:27.732Z,100374.34
2022-08-11T00:53:19.757Z,100360.25
2022-08-11T00:56:05.139Z,100364.78
2022-08-11T00:58:57.888Z,100360.38
2022-08-11T01:02:01.380Z,100363.88
2022-08-11T01:05:01.555Z,100360.34
2022-08-11T01:08:01.273Z,100355.94
2022-08-11T01:10:59.028Z,100367.41
2022-08-11T01:14:06.011Z,100354.28
2022-08-11T01:16:59.025Z,100354.22
2022-08-11T01:20:44.665Z,100358.63
2022-08-11T01:23:04.912Z,100356.53
2022-08-11T01:25:57.435Z,100364.78
2022-08-11T01:28:56.656Z,100360.03
2022-08-11T01:32:02.640Z,100355.87
2022-08-11T01:34:51.783Z,100358.38
2022-08-11T01:37:52.770Z,100359.81
2022-08-11T01:40:40.236Z,100354.91
2022-08-11T01:43:59.337Z,100352.84
2022-08-11T01:46:34.177Z,100346.28
2022-08-11T01:50:07.164Z,100347.59
2022-08-11T01:53:15.419Z,100360.97
2022-08-11T01:55:59.460Z,100342.34
2022-08-11T01:58:52.340Z,100347.25
2022-08-11T02:01:46.754Z,100351.91
2022-08-11T02:04:40.160Z,100346.53
2022-08-11T02:07:09.126Z,100352.94
2022-08-11T02:10:50.501Z,100346.66
2022-08-11T02:13:47.987Z,100343.62
2022-08-11T02:16:35.959Z,100343.28
2022-08-11T02:19:50.030Z,100337.69
2022-08-11T02:22:49.565Z,100333.59
2022-08-11T02:25:41.985Z,100350.19
2022-08-11T02:28:50.408Z,100340.47
2022-08-11T02:32:24.753Z,100345.69
2022-08-11T02:35:00.353Z,100340.62
2022-08-11T02:37:34.942Z,100328.44
2022-08-11T02:40:31.764Z,100338.87
2022-08-11T02:43:16.548Z,100332.31
2022-08-11T02:46:18.149Z,100328.06
2022-08-11T02:49:24.277Z,100327.97
2022-08-11T02:52:08.247Z,100324.81
2022-08-11T02:54:45.708Z,100335.47
2022-08-11T02:57:26.806Z,100330.16
2022-08-11T03:00:13.964Z,100326.66
2022-08-11T03:02:48.921Z,100332.78
2022-08-11T03:05:34.630Z,100329.34
2022-08-11T03:08:11.994Z,100325.59
2022-08-11T03:11:30.813Z,100326.53
2022-08-11T03:14:40.897Z,100319.84
2022-08-11T03:17:29.915Z,100342.28
2022-08-11T03:20:02.142Z,100337.47
2022-08-11T03:22:38.895Z,100337.19
2022-08-11T03:25:15.773Z,100344.94
2022-08-11T03:28:04.689Z,100330.28
2022-08-11T03:30:53.256Z,100333.84
2022-08-11T03:33:55.448Z,100341.63
2022-08-11T03:37:15.168Z,100338.00
2022-08-11T03:40:04.728Z,100336.00
2022-08-11T03:42:54.344Z,100343.94
2022-08-11T03:45:41.118Z,100345.03
2022-08-11T03:48:27.635Z,100336.31
2022-08-11T03:51:21.232Z,100337.25
2022-08-11T03:54:04.430Z,100347.75
2022-08-11T03:57:09.217Z,100336.59
2022-08-11T03:59:53.939Z,100337.31
2022-08-11T04:02:26.412Z,100328.50
2022-08-11T04:05:31.698Z,100339.03
2022-08-11T04:08:42.110Z,100338.22
2022-08-11T04:11:34.767Z,100342.53
2022-08-11T04:14:48.902Z,100345.94
2022-08-11T04:17:35.755Z,100349.44
2022-08-11T04:20:30.417Z,100337.34
2022-08-11T04:23:03.666Z,100335.75
2022-08-11T04:26:00.568Z,100342.53
2022-08-11T04:29:09.742Z,100332.06
2022-08-11T04:31:53.431Z,100350.31
2022-08-11T04:34:33.369Z,100336.50
2022-08-11T04:37:34.745Z,100345.28
2022-08-11T04:40:27.504Z,100354.94
2022-08-11T04:43:32.766Z,100350.53
2022-08-11T04:46:26.444Z,100348.87
2022-08-11T04:49:33.825Z,100353.34
2022-08-11T04:52:42.537Z,100359.41
2022-08-11T04:55:50.954Z,100357.72
2022-08-11T04:58:43.507Z,100350.34
2022-08-11T05:01:41.874Z,100355.97
2022-08-11T05:05:06.047Z,100357.78
2022-08-11T05:07:53.616Z,100346.31
2022-08-11T05:10:52.099Z,100353.41
2022-08-11T05:13:51.371Z,100347.22
2022-08-11T05:16:41.755Z,100348.94
2022-08-11T05:19:35.033Z,100355.94
2022-08-11T05:22:21.952Z,100367.38
2022-08-11T05:25:15.150Z,100363.00
2022-08-11T05:28:33.849Z,100362.13
2022-08-11T05:31:23.336Z,100370.88
2022-08-11T05:34:11.503Z,100368.28
2022-08-11T05:36:51.134Z,100362.84
2022-08-11T05:39:43.605Z,100368.97
2022-08-11T05:42:30.716Z,100368.97
2022-08-11T05:45:21.031Z,100372.44
2022-08-11T05:48:10.930Z,100371.25
2022-08-11T05:50:58.561Z,100363.31
2022-08-11T05:53:46.162Z,100371.59
2022-08-11T05:56:20.678Z,100369.91
2022-08-11T05:58:53.104Z,100373.69
2022-08-11T06:01:26.930Z,100371.81
2022-08-11T06:04:16.227Z,100375.97
2022-08-11T06:06:57.497Z,100370.66
2022-08-11T06:09:28.302Z,100369.41
2022-08-11T06:11:58.702Z,100373.78
2022-08-11T06:14:27.216Z,100379.84
2022-08-11T06:16:59.363Z,100370.16
2022-08-11T06:19:36.616Z,100374.34
2022-08-11T06:22:05.851Z,100380.59
2022-08-11T06:24:35.843Z,100374.72
2022-08-11T06:27:13.364Z,100373.47
2022-08-11T06:29:54.867Z,100373.38
2022-08-11T06:32:27.823Z,100372.06
2022-08-11T06:35:28.046Z,100371.12
2022-08-11T06:38:12.710Z,100370.97
2022-08-11T06:40:40.282Z,100371.22
2022-08-11T06:43:18.966Z,100373.78
2022-08-11T06:46:05.370Z,100368.31
2022-08-11T06:48:33.884Z,100364.62
2022-08-11T06:51:12.097Z,100366.37
2022-08-11T06:54:03.604Z,100355.28
2022-08-11T06:57:12.405Z,100359.28
2022-08-11T07:00:01.894Z,100356.59
2022-08-11T07:02:37.525Z,100353.66
2022-08-11T07:05:09.680Z,100358.16
2022-08-11T07:08:33.785Z,100351.50
2022-08-11T07:11:25.504Z,100362.41
2022-08-11T07:14:13.311Z,100348.44
2022-08-11T07:16:44.697Z,100339.16
2022-08-11T07:19:33.699Z,100341.13
2022-08-11T07:22:21.753Z,100344.03
2022-08-11T07:25:17.275Z,100341.78
2022-08-11T07:28:48.312Z,100328.91
2022-08-11T07:31:44.543Z,100330.47
2022-08-11T07:34:24.168Z,100330.31
2022-08-11T07:36:55.651Z,100320.69
2022-08-11T07:39:26.082Z,100327.19
2022-08-11T07:41:55.268Z,100318.97
2022-08-11T07:44:30.806Z,100320.81
2022-08-11T07:47:20.182Z,100321.44
2022-08-11T07:50:07.819Z,100320.66
2022-08-11T07:52:38.170Z,100322.59
2022-08-11T07:55:10.319Z,100313.56
2022-08-11T07:58:16.839Z,100321.06
2022-08-11T08:01:22.244Z,100316.09
2022-08-11T08:04:09.450Z,100314.66
2022-08-11T08:06:56.939Z,100308.44
2022-08-11T08:09:43.748Z,100312.53
2022-08-11T08:12:31.304Z,100315.19
2022-08-11T08:15:17.814Z,100309.62
2022-08-11T08:18:09.161Z,100315.66
2022-08-11T08:20:46.960Z,100313.56
2022-08-11T08:23:14.860Z,100302.09
2022-08-11T08:25:44.202Z,100311.34
2022-08-11T08:28:17.153Z,100313.38
2022-08-11T08:30:47.841Z,100309.44
2022-08-11T08:33:27.882Z,100318.22
2022-08-11T08:36:18.705Z,100302.59
2022-08-11T08:38:51.160Z,100309.41
2022-08-11T08:41:28.690Z,100298.78
2022-08-11T08:44:20.672Z,100302.78
2022-08-11T08:46:58.264Z,100307.28
2022-08-11T08:49:40.253Z,100303.69
2022-08-11T08:52:30.482Z,100297.97
2022-08-11T08:54:58.415Z,100298.94
2022-08-11T08:57:28.481Z,100287.06
2022-08-11T08:59:57.076Z,100300.81
2022-08-11T09:02:44.001Z,100303.09
2022-08-11T09:05:12.431Z,100293.72
2022-08-11T09:07:40.923Z,100309.53
2022-08-11T09:10:10.901Z,100291.66
2022-08-11T09:12:40.309Z,100287.50
2022-08-11T09:15:10.540Z,100288.53
2022-08-11T09:17:51.991Z,100280.72
2022-08-11T09:20:22.157Z,100287.72
2022-08-11T09:26:18.481Z,100273.47
2022-08-11T09:28:47.788Z,100267.56
2022-08-11T09:31:16.257Z,100268.03
2022-08-11T09:33:44.764Z,100266.72
2022-08-11T09:36:31.989Z,100265.62
2022-08-11T09:39:19.508Z,100272.31
2022-08-11T09:42:01.185Z,100267.41
2022-08-11T09:44:50.907Z,100251.69
2022-08-11T09:47:25.171Z,100257.09
2022-08-11T09:50:00.330Z,100248.53
2022-08-11T09:52:30.068Z,100263.00
2022-08-11T09:54:58.124Z,100248.62
2022-08-11T09:57:44.129Z,100253.31
2022-08-11T10:00:14.162Z,100245.84
2022-08-11T10:02:44.640Z,100246.91
2022-08-11T10:05:34.475Z,100241.91
2022-08-11T10:08:03.277Z,100242.84
2022-08-11T10:10:35.002Z,100237.69
2022-08-11T10:13:09.076Z,100239.00
2022-08-11T10:16:14.762Z,100241.88
2022-08-11T10:18:54.111Z,100222.50
2022-08-11T10:21:34.658Z,100240.22
2022-08-11T10:24:21.950Z,100240.56
2022-08-11T10:26:54.636Z,100237.22
2022-08-11T10:29:49.839Z,100235.09
2022-08-11T10:32:49.370Z,100227.13
2022-08-11T10:35:29.797Z,100225.94
2022-08-11T10:38:07.486Z,100217.75
2022-08-11T10:40:40.832Z,100219.75
2022-08-11T10:43:14.218Z,100226.69
2022-08-11T10:46:03.731Z,100206.66
2022-08-11T10:48:35.983Z,100214.94
2022-08-11T10:51:13.600Z,100215.09
2022-08-11T10:54:08.061Z,100211.88
2022-08-11T10:56:59.211Z,100210.88
2022-08-11T10:59:27.899Z,100199.91
2022-08-11T11:01:55.685Z,100197.91
2022-08-11T11:04:52.243Z,100194.41
2022-08-11T11:07:29.648Z,100196.25
2022-08-11T11:10:05.509Z,100198.00
2022-08-11T11:13:02.654Z,100188.00
2022-08-11T11:15:49.690Z,100186.66
2022-08-11T11:18:25.784Z,100175.94
2022-08-11T11:20:59.773Z,100173.56
2022-08-11T11:23:56.097Z,100182.06
2022-08-11T11:26:42.583Z,100172.06
2022-08-11T11:29:31.825Z,100154.63
2022-08-11T11:32:24.643Z,100150.03
2022-08-11T11:35:16.658Z,100147.81
2022-08-11T11:38:03.633Z,100146.28
2022-08-11T11:40:32.968Z,100151.06
2022-08-11T11:43:01.117Z,100146.94
2022-08-11T11:45:28.800Z,100140.19
2022-08-11T11:47:59.856Z,100141.22
2022-08-11T11:50:35.778Z,100142.91
2022-08-11T11:53:08.695Z,100138.94
2022-08-11T11:55:36.649Z,100142.63
2022-08-11T11:58:23.527Z,100135.81
2022-08-11T12:01:11.452Z,100127.88
2022-08-11T12:03:39.947Z,100126.62
2022-08-11T12:06:08.500Z,100127.72
2022-08-11T12:08:37.107Z,100118.75
2022-08-11T12:11:26.654Z,100126.34
2022-08-11T12:13:56.012Z,100116.41
2022-08-11T12:16:34.443Z,100114.13
2022-08-11T12:19:24.082Z,100114.66
2022-08-11T12:22:11.750Z,100110.72
2022-08-11T12:24:57.868Z,100109.41
2022-08-11T12:27:27.527Z,100102.88
2022-08-11T12:30:00.697Z,100099.81
2022-08-11T12:32:31.913Z,100101.34
2022-08-11T12:34:59.532Z,100101.34
2022-08-11T12:37:32.546Z,100109.19
2022-08-11T12:40:43.131Z,100103.97
2022-08-11T12:43:37.764Z,100102.72
2022-08-11T12:46:12.620Z,100093.53
2022-08-11T12:49:03.507Z,100087.41
2022-08-11T12:52:13.022Z,100096.16
2022-08-11T12:54:52.159Z,100092.53
2022-08-11T12:57:54.954Z,100083.78
2022-08-11T13:00:43.098Z,100081.63
2022-08-11T13:03:30.538Z,100092.94
2022-08-11T13:06:00.118Z,100080.00
2022-08-11T13:08:29.635Z,100077.00
2022-08-11T13:11:17.332Z,100072.84
2022-08-11T13:13:53.886Z,100072.19
2022-08-11T13:16:29.662Z,100067.66
2022-08-11T13:19:00.849Z,100063.47
2022-08-11T13:21:28.873Z,100067.25
2022-08-11T13:24:01.473Z,100061.19
2022-08-11T13:26:47.805Z,100045.94
2022-08-11T13:29:22.259Z,100046.78
2022-08-11T13:31:51.054Z,100049.78
2022-08-11T13:34:19.826Z,100042.34
2022-08-11T13:36:52.937Z,100056.41
2022-08-11T13:39:24.109Z,100046.84
2022-08-11T13:41:54.488Z,100054.31
2022-08-11T13:44:25.754Z,100047.94
2022-08-11T13:46:56.661Z,100051.34
2022-08-11T13:49:26.211Z,100046.00
2022-08-11T13:51:54.677Z,100042.12
2022-08-11T13:54:26.032Z,100030.69
2022-08-11T13:56:56.545Z,100038.59
2022-08-11T13:59:30.108Z,100042.91
2022-08-11T14:02:21.939Z,100037.41
2022-08-11T14:04:55.583Z,100045.16
2022-08-11T14:07:25.218Z,100041.75
2022-08-11T14:09:57.903Z,100048.59
2022-08-11T14:12:47.079Z,100041.81
2022-08-11T14:15:20.029Z,100044.16
2022-08-11T14:18:01.754Z,100042.69
2022-08-11T14:20:50.100Z,100044.66
2022-08-11T14:23:18.695Z,100037.84
2022-08-11T14:26:19.082Z,100029.66
2022-08-11T14:28:47.270Z,100028.69
2022-08-11T14:31:16.012Z,100031.22
2022-08-11T14:34:00.007Z,100035.72
2022-08-11T14:36:32.763Z,100034.81
2022-08-11T14:39:02.601Z,100037.13
2022-08-11T14:42:10.863Z,100032.47
2022-08-11T14:44:56.401Z,100032.19
2022-08-11T14:47:25.732Z,100035.22
2022-08-11T14:49:58.088Z,100034.69
2022-08-11T14:52:37.762Z,100028.97
2022-08-11T14:55:24.395Z,100031.91
2022-08-11T14:57:55.750Z,100027.25
2022-08-11T15:00:24.305Z,100028.62
2022-08-11T15:03:10.370Z,100028.31
2022-08-11T15:05:56.218Z,100028.91
2022-08-11T15:08:49.342Z,100025.78
2022-08-11T15:11:37.238Z,100029.50
2022-08-11T15:14:08.099Z,100022.16
2022-08-11T15:16:56.273Z,100025.22
2022-08-11T15:19:25.445Z,100016.56
2022-08-11T15:22:11.574Z,100012.09
2022-08-11T15:24:39.337Z,100020.06
2022-08-11T15:27:32.702Z,100024.47
2022-08-11T15:30:32.122Z,100021.31
2022-08-11T15:33:25.200Z,100016.16
2022-08-11T15:36:12.948Z,100010.91
2022-08-11T15:38:44.101Z,100008.91
2022-08-11T15:41:33.522Z,100010.66
2022-08-11T15:44:20.908Z,100010.84
2022-08-11T15:47:08.372Z,100010.81
2022-08-11T15:50:11.190Z,100015.91
2022-08-11T15:52:33.373Z,100013.22
2022-08-11T15:55:02.982Z,100002.19
2022-08-11T15:57:49.277Z,100017.28
2022-08-11T16:00:36.147Z,100007.53
2022-08-11T16:04:06.371Z,100008.50
2022-08-11T16:06:22.566Z,99999.44
2022-08-11T16:08:52.584Z,100006.03
2022-08-11T16:11:21.572Z,100004.75
2022-08-11T16:14:08.786Z,99999.47
2022-08-11T16:16:36.909Z,100000.59
2022-08-11T16:19:05.938Z,99998.94
2022-08-11T16:21:36.359Z,100007.66
2022-08-11T16:24:07.524Z,100004.06
2022-08-11T16:27:11.492Z,100010.63
2022-08-11T16:29:26.808Z,99999.53
2022-08-11T16:32:14.395Z,100004.72
2022-08-11T16:35:04.075Z,100008.56
2022-08-11T16:37:53.447Z,99998.94
2022-08-11T16:40:22.753Z,100003.44
2022-08-11T16:43:11.352Z,99997.03
2022-08-11T16:45:59.965Z,100000.06
2022-08-11T16:48:37.308Z,100004.56
2022-08-11T16:51:07.597Z,100004.44
2022-08-11T16:53:59.993Z,99999.13
2022-08-11T16:56:33.076Z,99993.47
2022-08-11T16:59:16.549Z,99997.38
2022-08-11T17:01:53.147Z,100004.16
2022-08-11T17:04:46.216Z,100005.91
2022-08-11T17:07:41.464Z,100002.75
2022-08-11T17:10:51.569Z,100004.72
2022-08-11T17:13:31.988Z,99997.44
2022-08-11T17:16:08.038Z,100000.78
2022-08-11T17:18:57.506Z,100004.31
2022-08-11T17:21:27.394Z,100004.88
2022-08-11T17:23:59.279Z,99997.62
2022-08-11T17:26:57.577Z,100002.94
2022-08-11T17:29:54.869Z,100005.50
2022-08-11T17:33:02.058Z,100011.75
2022-08-11T17:35:34.088Z,100019.00
2022-08-11T17:38:07.042Z,100014.50
2022-08-11T17:40:38.960Z,100020.75
2022-08-11T17:43:27.183Z,100027.00
2022-08-11T17:46:08.341Z,100030.53
2022-08-11T17:48:47.336Z,100032.94
2022-08-11T17:51:39.262Z,100033.94
2022-08-11T17:54:26.259Z,100044.59
2022-08-11T17:57:20.419Z,100043.91
2022-08-11T17:59:53.179Z,100030.41
2022-08-11T18:02:52.567Z,100047.16
2022-08-11T18:05:22.730Z,100050.56
2022-08-11T18:08:10.364Z,100060.69
2022-08-11T18:10:57.684Z,100055.53
2022-08-11T18:13:46.291Z,100079.31
2022-08-11T18:16:32.685Z,100079.22
2022-08-11T18:19:19.047Z,100081.03
2022-08-11T18:22:14.422Z,100080.87
2022-08-11T18:25:16.132Z,100078.38
2022-08-11T18:28:05.409Z,100083.59
2022-08-11T18:31:03.250Z,100084.06
2022-08-11T18:34:11.181Z,100089.41
2022-08-11T18:37:19.707Z,100085.00
2022-08-11T18:40:14.041Z,100087.59
2022-08-11T18:43:00.914Z,100093.81
2022-08-11T18:45:47.266Z,100092.31
2022-08-11T18:48:41.405Z,100096.56
2022-08-11T18:51:36.835Z,100084.31
2022-08-11T18:54:27.762Z,100084.59
2022-08-11T18:57:16.436Z,100095.38
2022-08-11T19:00:03.686Z,100104.66
2022-08-11T19:02:51.239Z,100100.31
2022-08-11T19:06:31.980Z,100108.31
2022-08-11T19:08:51.524Z,100107.31
2022-08-11T19:11:42.630Z,100106.41
2022-08-11T19:14:33.585Z,100109.09
2022-08-11T19:17:43.394Z,100108.09
2022-08-11T19:20:30.345Z,100104.94
2022-08-11T19:23:16.601Z,100103.81
2022-08-11T19:26:04.594Z,100100.56
2022-08-11T19:28:52.666Z,100101.47
2022-08-11T19:31:44.392Z,100087.81
2022-08-11T19:34:36.893Z,100099.50
2022-08-11T19:37:25.431Z,100091.63
2022-08-11T19:40:13.968Z,100088.91
2022-08-11T19:43:02.840Z,100089.75
2022-08-11T19:45:52.760Z,100083.16
2022-08-11T19:48:41.408Z,100091.94
2022-08-11T19:51:28.555Z,100094.66
2022-08-11T19:54:16.410Z,100086.66
2022-08-11T19:57:03.249Z,100095.38
2022-08-11T19:59:49.959Z,100095.66
2022-08-11T20:02:36.597Z,100095.66
2022-08-11T20:05:25.130Z,100098.25
2022-08-11T20:08:13.403Z,100088.44
2022-08-11T20:11:00.034Z,100089.50
2022-08-11T20:13:47.554Z,100087.09
2022-08-11T20:16:39.039Z,100086.03
2022-08-11T20:19:55.711Z,100091.31
2022-08-11T20:22:35.194Z,100089.66
2022-08-11T20:25:23.013Z,100093.81
2022-08-11T20:28:10.822Z,100085.88
2022-08-11T20:30:57.466Z,100092.22
2022-08-11T20:33:43.829Z,100085.13
2022-08-11T20:36:30.805Z,100088.69
2022-08-11T20:39:18.378Z,100096.47
2022-08-11T20:42:06.817Z,100102.00
2022-08-11T20:44:55.314Z,100097.47
2022-08-11T20:47:56.243Z,100102.78
2022-08-11T20:50:45.863Z,100102.72
2022-08-11T20:53:36.076Z,100108.09
2022-08-11T20:56:28.563Z,100107.19
2022-08-11T20:59:21.867Z,100108.03
2022-08-11T21:02:10.697Z,100110.72
2022-08-11T21:05:00.297Z,100111.47
2022-08-11T21:07:55.375Z,100108.31
2022-08-11T21:10:47.211Z,100114.47
2022-08-11T21:13:39.443Z,100111.41
2022-08-11T21:16:27.187Z,100115.41
2022-08-11T21:19:18.775Z,100111.41
2022-08-11T21:22:28.050Z,100121.50
2022-08-11T21:25:16.591Z,100116.28
2022-08-11T21:28:03.696Z,100124.28
2022-08-11T21:30:50.582Z,100121.59
2022-08-11T21:33:41.827Z,100120.75
2022-08-11T21:36:29.094Z,100126.81
2022-08-11T21:39:15.646Z,100125.13
2022-08-11T21:42:02.653Z,100125.09
2022-08-11T21:44:48.852Z,100128.59
2022-08-11T21:47:43.154Z,100125.03
2022-08-11T21:50:30.918Z,100128.63
2022-08-11T21:53:18.272Z,100127.75
2022-08-11T21:56:04.916Z,100131.28
2022-08-11T21:58:51.193Z,100134.81
2022-08-11T22:01:37.267Z,100133.81
2022-08-11T22:04:25.274Z,100135.66
2022-08-11T22:07:11.290Z,100134.72
2022-08-11T22:09:57.682Z,100128.56
2022-08-11T22:12:45.302Z,100129.47
2022-08-11T22:15:32.418Z,100129.59
2022-08-11T22:18:20.793Z,100134.84
2022-08-11T22:21:07.537Z,100133.09
2022-08-11T22:23:57.088Z,100126.00
2022-08-11T22:26:47.348Z,100127.81
2022-08-11T22:29:50.123Z,100132.22
2022-08-11T22:32:38.000Z,100134.81
2022-08-11T22:35:28.591Z,100126.88
2022-08-11T22:38:16.165Z,100128.69
2022-08-11T22:41:02.558Z,100125.16
2022-08-11T22:43:48.874Z,100122.53
2022-08-11T22:46:35.576Z,100114.59
2022-08-11T22:49:21.879Z,100108.44
2022-08-11T22:52:08.975Z,100104.91
2022-08-11T22:54:55.831Z,100108.44
2022-08-11T22:58:00.550Z,100104.03
2022-08-11T23:00:47.556Z,100101.34
2022-08-11T23:03:37.388Z,100103.16
2022-08-11T23:06:25.753Z,100101.37
2022-08-11T23:09:12.177Z,100103.12
2022-08-11T23:12:07.622Z,100091.72
2022-08-11T23:14:57.859Z,100096.97
2022-08-11T23:17:45.233Z,100102.25
2022-08-11T23:20:46.646Z,100103.12
2022-08-11T23:23:35.834Z,100100.50
2022-08-11T23:26:22.166Z,100101.41
2022-08-11T23:29:08.584Z,100095.22
2022-08-11T23:31:54.967Z,100090.84
2022-08-11T23:35:36.932Z,100090.84
2022-08-11T23:37:55.502Z,100087.28
2022-08-11T23:40:46.100Z,100084.69
2022-08-11T23:43:42.155Z,100076.75
2022-08-11T23:46:28.955Z,100081.97
2022-08-11T23:49:21.100Z,100076.75
2022-08-11T23:52:08.401Z,100078.50
2022-08-11T23:54:54.719Z,100082.44
2022-08-11T23:57:47.581Z,100076.09
